Terminal Aerodrome Forecast
Issued by NWS Louisville, KY

Home | Current Version | Previous Version | Text Only | Print | Product List | Glossary On
Versions: 1 2 3 4 5 6 7 8 9 10 11 12 13 14 15 16 17 18 19
000
FTUS43 KLMK 172004 AAA
TAFLEX
TAF AMD
KLEX 172004Z 1720/1818 VRB04KT 3SM -RA BR OVC006
      TEMPO 1720/1722 1SM -RA BR OVC003
     FM172200 19006KT 5SM BR VCSH OVC007
     FM180600 24006KT P6SM BKN010
     FM181100 26004KT 6SM BR SCT025=

USA.gov is the U.S. government's official web portal to all federal, state and local government web resources and services.